Startpagina
METAR-TAF:

METAR-TAF

Vliegvelden :

Curaçao International Airport

Curaçao, Nederlandse Antillen

breedte: 12-12N, lengte: 068-58W, hoogte: 9 m

Actueel weer

Dit bericht is 46 minuten geleden gemaakt, om 22:00 UTC
Wind 11 kt uit het oosten
Temperatuur 30°C
Vochtigheid 70%
Druk 1012 hPa
Zicht 10 km of meer
Weinig wolken op 2000 ft

METAR: TNCC 052200Z 10011KT 9999 FEW020 30/24 Q1012 NOSIG

Tijdstip: 18:46 (22:46 UTC)

Verwachting

Dit bericht is 5 uur en het 45 minuten geleden gemaakt, om 17:01 UTC
Verwachting geldig van 05 om 18 UTC tot 06 om 18 UTC
Wind 17 kt uit het oosten met uitschieters tot 27 kt
Zicht 10 km of meer
Weinig wolken op 2500 ft
Tijdelijke
van 06 om 04 UTC tot 06 om 18 UTC
Gebroken wolken op 1500 ft

TAF: TNCC 051701Z 0518/0618 10017G27KT 9999 FEW025 TEMPO 0604/0618 BKN015

Waarnemingen en weersverwachtingen van meer dan 4000 vliegvelden (METAR en TAF).

De beschikbare stations zijn de gele en rode punten op de kaart.

Ga met uw muis naar het station om de naam te zien.

Klik dan om waarnemingen en weersverwachtingen te zien.

kaart wijzigen: klik op de groene knoppen met een zwart kruis om in te zoomen, op de groene knop met een streepje om uit te zoomen of op de groene pijlen voor aangrenzende kaarten.


METAR-TAF: